createdAt,value
2017-09-21T00:00:52.705Z,11.18
2017-09-21T00:01:52.704Z,11.22
2017-09-21T00:02:52.702Z,11.23
2017-09-21T00:03:52.695Z,11.25
2017-09-21T00:04:52.694Z,11.27
2017-09-21T00:05:52.691Z,11.22
2017-09-21T00:06:52.687Z,11.19
2017-09-21T00:07:52.689Z,11.25
2017-09-21T00:08:52.689Z,11.25
2017-09-21T00:09:52.685Z,11.22
2017-09-21T00:10:52.682Z,11.25
2017-09-21T00:11:52.680Z,11.29
2017-09-21T00:12:52.677Z,11.26
2017-09-21T00:13:52.674Z,11.26
2017-09-21T00:14:52.672Z,11.23
2017-09-21T00:15:52.708Z,11.19
2017-09-21T00:16:52.669Z,11.22
2017-09-21T00:17:52.668Z,11.27
2017-09-21T00:18:52.663Z,11.22
2017-09-21T00:19:52.667Z,11.29
2017-09-21T00:20:52.661Z,11.32
2017-09-21T00:21:52.661Z,11.17
2017-09-21T00:22:52.655Z,11.29
2017-09-21T00:23:52.653Z,11.25
2017-09-21T00:24:52.651Z,11.23
2017-09-21T00:25:52.648Z,11.23
2017-09-21T00:26:52.647Z,11.18
2017-09-21T00:27:52.646Z,11.17
2017-09-21T00:28:52.641Z,11.19
2017-09-21T00:29:52.639Z,11.19
2017-09-21T00:30:52.647Z,11.15
2017-09-21T00:31:52.642Z,11.23
2017-09-21T00:32:52.634Z,11.19
2017-09-21T00:33:52.635Z,11.19
2017-09-21T00:34:52.628Z,11.23
2017-09-21T00:35:52.624Z,11.22
2017-09-21T00:36:52.625Z,11.17
2017-09-21T00:37:52.622Z,11.22
2017-09-21T00:38:52.620Z,11.19
2017-09-21T00:39:52.618Z,11.26
2017-09-21T00:40:52.618Z,11.18
2017-09-21T00:41:52.612Z,11.23
2017-09-21T00:42:52.610Z,11.22
2017-09-21T00:43:52.609Z,11.19
2017-09-21T00:44:52.610Z,11.23
2017-09-21T00:45:52.604Z,11.22
2017-09-21T00:46:52.603Z,11.32
2017-09-21T00:47:52.598Z,11.36
2017-09-21T00:48:52.598Z,11.37
2017-09-21T00:49:52.595Z,11.27
2017-09-21T00:50:52.591Z,11.32
2017-09-21T00:51:52.592Z,11.35
2017-09-21T00:52:52.589Z,11.30
2017-09-21T00:53:52.595Z,11.25
2017-09-21T00:54:52.591Z,11.29
2017-09-21T00:55:52.583Z,11.25
2017-09-21T00:56:52.582Z,11.23
2017-09-21T00:57:52.581Z,11.29
2017-09-21T00:58:52.588Z,11.27
2017-09-21T00:59:52.576Z,11.27
2017-09-21T01:00:52.573Z,11.22
2017-09-21T01:01:52.572Z,11.22
2017-09-21T01:02:52.564Z,11.23
2017-09-21T01:03:52.566Z,11.23
2017-09-21T01:04:52.567Z,11.26
2017-09-21T01:05:52.563Z,11.26
2017-09-21T01:06:52.562Z,11.26
2017-09-21T01:07:52.565Z,11.22
2017-09-21T01:08:52.571Z,11.23
2017-09-21T01:09:52.555Z,11.30
2017-09-21T01:10:52.556Z,11.36
2017-09-21T01:11:52.549Z,11.27
2017-09-21T01:12:52.549Z,11.23
2017-09-21T01:13:52.545Z,11.29
2017-09-21T01:14:52.545Z,11.25
2017-09-21T01:15:52.549Z,11.33
2017-09-21T01:16:52.545Z,11.30
2017-09-21T01:17:52.538Z,11.25
2017-09-21T01:18:52.535Z,11.25
2017-09-21T01:19:52.534Z,11.36
2017-09-21T01:20:52.529Z,11.29
2017-09-21T01:21:52.530Z,11.32
2017-09-21T01:22:52.537Z,11.30
2017-09-21T01:23:52.525Z,11.35
2017-09-21T01:24:52.526Z,11.33
2017-09-21T01:25:52.519Z,11.30
2017-09-21T01:26:52.518Z,11.30
2017-09-21T01:27:52.511Z,11.35
2017-09-21T01:28:52.514Z,11.30
2017-09-21T01:29:52.512Z,11.33
2017-09-21T01:30:52.512Z,11.33
2017-09-21T01:31:52.505Z,11.30
2017-09-21T01:32:52.502Z,11.27
2017-09-21T01:33:52.526Z,11.32
2017-09-21T01:34:52.505Z,11.30
2017-09-21T01:35:52.500Z,11.33
2017-09-21T01:36:52.496Z,11.35
2017-09-21T01:37:52.494Z,11.36
2017-09-21T01:38:52.497Z,11.30
2017-09-21T01:39:52.490Z,11.29
2017-09-21T01:40:52.488Z,11.29
2017-09-21T01:41:52.487Z,11.27
2017-09-21T01:42:52.485Z,11.27
2017-09-21T01:43:52.483Z,11.27
2017-09-21T01:44:52.479Z,11.23
2017-09-21T01:45:52.479Z,11.25
2017-09-21T01:46:52.475Z,11.23
2017-09-21T01:47:52.475Z,11.22
2017-09-21T01:48:52.472Z,11.18
2017-09-21T01:49:52.469Z,11.26
2017-09-21T01:50:52.466Z,11.22
2017-09-21T01:51:52.465Z,11.22
2017-09-21T01:52:52.463Z,11.22
2017-09-21T01:53:52.461Z,11.15
2017-09-21T01:54:52.458Z,11.18
2017-09-21T01:55:52.457Z,11.23
2017-09-21T01:56:52.460Z,11.29
2017-09-21T01:57:52.448Z,11.18
2017-09-21T01:58:52.460Z,11.22
2017-09-21T01:59:52.448Z,11.23
2017-09-21T02:00:52.448Z,11.18
2017-09-21T02:01:52.438Z,11.19
2017-09-21T02:02:52.440Z,11.29
2017-09-21T02:03:52.436Z,11.30
2017-09-21T02:04:52.455Z,11.27
2017-09-21T02:05:52.434Z,11.22
2017-09-21T02:06:52.432Z,11.25
2017-09-21T02:07:52.431Z,11.27
2017-09-21T02:08:52.429Z,11.19
2017-09-21T02:09:52.438Z,11.25
2017-09-21T02:10:52.429Z,11.29
2017-09-21T02:11:52.434Z,11.26
2017-09-21T02:12:52.427Z,11.27
2017-09-21T02:13:52.416Z,11.19
2017-09-21T02:14:52.419Z,11.32
2017-09-21T02:15:52.415Z,11.30
2017-09-21T02:16:52.410Z,11.33
2017-09-21T02:17:52.407Z,11.33
2017-09-21T02:18:52.408Z,11.36
2017-09-21T02:19:52.404Z,11.36
2017-09-21T02:20:52.403Z,11.33
2017-09-21T02:21:52.404Z,11.35
2017-09-21T02:22:52.399Z,11.29
2017-09-21T02:23:52.395Z,11.36
2017-09-21T02:24:52.394Z,11.32
2017-09-21T02:25:52.393Z,11.32
2017-09-21T02:26:52.394Z,11.33
2017-09-21T02:27:52.389Z,11.35
2017-09-21T02:28:52.386Z,11.33
2017-09-21T02:29:52.385Z,11.27
2017-09-21T02:30:52.382Z,11.33
2017-09-21T02:31:52.381Z,11.26
2017-09-21T02:32:52.375Z,11.30
2017-09-21T02:33:52.375Z,11.33
2017-09-21T02:34:52.374Z,11.27
2017-09-21T02:35:52.371Z,11.29
2017-09-21T02:36:52.370Z,11.27
2017-09-21T02:37:52.365Z,11.25
2017-09-21T02:38:52.369Z,11.36
2017-09-21T02:39:52.364Z,11.27
2017-09-21T02:40:52.361Z,11.36
2017-09-21T02:41:52.361Z,11.32
2017-09-21T02:42:52.354Z,11.37
2017-09-21T02:43:52.355Z,11.33
2017-09-21T02:44:52.353Z,11.35
2017-09-21T02:45:52.349Z,11.35
2017-09-21T02:46:52.350Z,11.33
2017-09-21T02:47:52.346Z,11.35
2017-09-21T02:48:52.352Z,11.23
2017-09-21T02:49:52.343Z,11.36
2017-09-21T02:50:52.339Z,11.35
2017-09-21T02:51:52.340Z,11.37
2017-09-21T02:52:52.336Z,11.30
2017-09-21T02:53:52.331Z,11.29
2017-09-21T02:54:52.331Z,11.30
2017-09-21T02:55:52.342Z,11.33
2017-09-21T02:56:52.329Z,11.30
2017-09-21T02:57:52.326Z,11.32
2017-09-21T02:58:52.324Z,11.35
2017-09-21T02:59:52.321Z,11.32
2017-09-21T03:00:52.319Z,11.35
2017-09-21T03:01:52.320Z,11.32
2017-09-21T03:02:52.313Z,11.29
2017-09-21T03:03:52.367Z,11.33
2017-09-21T03:04:52.311Z,11.44
2017-09-21T03:05:52.313Z,11.33
2017-09-21T03:06:52.308Z,11.36
2017-09-21T03:07:52.301Z,11.29
2017-09-21T03:08:52.300Z,11.30
2017-09-21T03:09:52.299Z,11.33
2017-09-21T03:10:52.308Z,11.33
2017-09-21T03:11:52.294Z,11.33
2017-09-21T03:12:52.294Z,11.30
2017-09-21T03:13:52.295Z,11.29
2017-09-21T03:14:52.288Z,11.27
2017-09-21T03:15:52.294Z,11.27
2017-09-21T03:16:52.281Z,11.32
2017-09-21T03:17:52.281Z,11.26
2017-09-21T03:18:52.278Z,11.33
2017-09-21T03:19:52.277Z,11.30
2017-09-21T03:20:52.274Z,11.29
2017-09-21T03:21:52.274Z,11.25
2017-09-21T03:22:52.271Z,11.22
2017-09-21T03:23:52.277Z,11.23
2017-09-21T03:24:52.267Z,11.26
2017-09-21T03:25:52.278Z,11.26
2017-09-21T03:26:52.273Z,11.23
2017-09-21T03:27:52.256Z,11.19
2017-09-21T03:28:52.265Z,11.23
2017-09-21T03:29:52.255Z,11.22
2017-09-21T03:30:52.270Z,11.25
2017-09-21T03:31:52.251Z,11.25
2017-09-21T03:32:52.249Z,11.17
2017-09-21T03:33:52.268Z,11.25
2017-09-21T03:34:52.247Z,11.26
2017-09-21T03:35:52.270Z,11.23
2017-09-21T03:36:52.241Z,11.29
2017-09-21T03:37:52.236Z,11.30
2017-09-21T03:38:52.236Z,11.25
2017-09-21T03:39:52.233Z,11.26
2017-09-21T03:40:52.230Z,11.30
2017-09-21T03:41:52.232Z,11.23
2017-09-21T03:42:52.226Z,11.30
2017-09-21T03:43:52.224Z,11.26
2017-09-21T03:44:52.222Z,11.23
2017-09-21T03:45:52.219Z,11.26
2017-09-21T03:46:52.218Z,11.22
2017-09-21T03:47:52.222Z,11.29
2017-09-21T03:48:52.213Z,11.19
2017-09-21T03:49:52.209Z,11.27
2017-09-21T03:50:52.210Z,11.25
2017-09-21T03:51:52.206Z,11.22
2017-09-21T03:52:52.205Z,11.23
2017-09-21T03:53:52.205Z,11.19
2017-09-21T03:54:52.201Z,11.19
2017-09-21T03:55:52.199Z,11.19
2017-09-21T03:56:52.196Z,11.19
2017-09-21T03:57:52.192Z,11.11
2017-09-21T03:58:52.193Z,11.12
2017-09-21T03:59:52.187Z,11.14
2017-09-21T04:00:52.186Z,11.17
2017-09-21T04:01:52.184Z,11.17
2017-09-21T04:02:52.187Z,11.07
2017-09-21T04:03:52.182Z,11.05
2017-09-21T04:04:52.179Z,11.17
2017-09-21T04:05:52.174Z,11.22
2017-09-21T04:06:52.172Z,11.10
2017-09-21T04:07:52.170Z,11.19
2017-09-21T04:08:52.174Z,11.18
2017-09-21T04:09:52.169Z,11.11
2017-09-21T04:10:52.164Z,11.17
2017-09-21T04:11:52.161Z,11.15
2017-09-21T04:12:52.154Z,11.15
2017-09-21T04:13:52.152Z,11.18
2017-09-21T04:14:52.155Z,11.10
2017-09-21T04:15:52.152Z,11.12
2017-09-21T04:16:52.152Z,11.18
2017-09-21T04:17:52.146Z,11.12
2017-09-21T04:18:52.144Z,11.14
2017-09-21T04:19:52.142Z,11.14
2017-09-21T04:20:52.139Z,11.14
2017-09-21T04:21:52.139Z,11.11
2017-09-21T04:22:52.136Z,11.08
2017-09-21T04:23:52.134Z,11.12
2017-09-21T04:24:52.132Z,11.10
2017-09-21T04:25:52.127Z,11.12
2017-09-21T04:26:52.125Z,11.12
2017-09-21T04:27:52.124Z,11.08
2017-09-21T04:28:52.121Z,11.11
2017-09-21T04:29:52.118Z,11.10
2017-09-21T04:30:52.117Z,11.14
2017-09-21T04:31:52.112Z,11.17
2017-09-21T04:32:52.113Z,11.22
2017-09-21T04:33:52.112Z,11.18
2017-09-21T04:34:52.106Z,11.25
2017-09-21T04:35:52.107Z,11.18
2017-09-21T04:36:52.101Z,11.15
2017-09-21T04:37:52.098Z,11.14
2017-09-21T04:38:52.109Z,11.17
2017-09-21T04:39:52.096Z,11.15
2017-09-21T04:40:52.096Z,11.17
2017-09-21T04:41:52.104Z,11.18
2017-09-21T04:42:52.088Z,11.19
2017-09-21T04:43:52.087Z,11.23
2017-09-21T04:44:52.094Z,11.14
2017-09-21T04:45:52.082Z,11.15
2017-09-21T04:46:52.086Z,11.22
2017-09-21T04:47:52.074Z,11.22
2017-09-21T04:48:52.076Z,11.22
2017-09-21T04:49:52.086Z,11.19
2017-09-21T04:50:52.070Z,11.22
2017-09-21T04:51:52.069Z,11.19
2017-09-21T04:52:52.065Z,11.19
2017-09-21T04:53:52.064Z,11.19
2017-09-21T04:54:52.088Z,11.19
2017-09-21T04:55:52.060Z,11.19
2017-09-21T04:56:52.058Z,11.29
2017-09-21T04:57:52.058Z,11.33
2017-09-21T04:58:52.054Z,11.25
2017-09-21T04:59:52.048Z,11.32
2017-09-21T05:00:52.051Z,11.32
2017-09-21T05:01:52.045Z,11.33
2017-09-21T05:02:52.044Z,11.35
2017-09-21T05:03:52.037Z,11.32
2017-09-21T05:04:52.038Z,11.29
2017-09-21T05:05:52.069Z,11.30
2017-09-21T05:06:52.041Z,11.36
2017-09-21T05:07:52.027Z,11.36
2017-09-21T05:08:52.031Z,11.33
2017-09-21T05:09:52.028Z,11.35
2017-09-21T05:10:52.032Z,11.43
2017-09-21T05:11:52.020Z,11.33
2017-09-21T05:12:52.022Z,11.37
2017-09-21T05:13:52.017Z,11.37
2017-09-21T05:14:52.013Z,11.41
2017-09-21T05:15:52.009Z,11.40
2017-09-21T05:16:52.013Z,11.45
2017-09-21T05:17:52.012Z,11.41
2017-09-21T05:18:52.015Z,11.45
2017-09-21T05:19:52.004Z,11.43
2017-09-21T05:20:52.002Z,11.50
2017-09-21T05:21:51.997Z,11.45
2017-09-21T05:22:52.001Z,11.45
2017-09-21T05:23:51.993Z,11.47
2017-09-21T05:24:51.995Z,11.43
2017-09-21T05:25:51.989Z,11.45
2017-09-21T05:26:51.989Z,11.45
2017-09-21T05:27:51.986Z,11.41
2017-09-21T05:28:51.984Z,11.36
2017-09-21T05:29:51.981Z,11.47
2017-09-21T05:30:51.976Z,11.48
2017-09-21T05:31:51.978Z,11.43
2017-09-21T05:32:51.975Z,11.47
2017-09-21T05:33:51.973Z,11.44
2017-09-21T05:34:51.973Z,11.37
2017-09-21T05:35:51.970Z,11.45
2017-09-21T05:36:51.969Z,11.44
2017-09-21T05:37:51.964Z,11.41
2017-09-21T05:38:51.970Z,11.41
2017-09-21T05:39:51.960Z,11.47
2017-09-21T05:40:51.957Z,11.44
2017-09-21T05:41:51.965Z,11.55
2017-09-21T05:42:51.952Z,11.60
2017-09-21T05:43:51.955Z,11.59
2017-09-21T05:44:51.951Z,11.65
2017-09-21T05:45:51.948Z,11.66
2017-09-21T05:46:51.944Z,11.62
2017-09-21T05:47:51.938Z,11.68
2017-09-21T05:48:51.942Z,11.73
2017-09-21T05:49:51.940Z,11.75
2017-09-21T05:50:51.935Z,11.70
2017-09-21T05:51:51.935Z,11.75
2017-09-21T05:52:51.936Z,11.84
2017-09-21T05:53:51.930Z,11.81
2017-09-21T05:54:51.928Z,11.86
2017-09-21T05:55:51.926Z,11.83
2017-09-21T05:56:51.924Z,11.91
2017-09-21T05:57:51.922Z,11.95
2017-09-21T05:58:51.921Z,11.94
2017-09-21T05:59:51.919Z,11.86
2017-09-21T06:00:51.921Z,11.95
2017-09-21T06:01:51.914Z,11.94
2017-09-21T06:02:51.915Z,11.91
2017-09-21T06:03:51.908Z,11.97
2017-09-21T06:04:51.910Z,12.02
2017-09-21T06:05:51.906Z,11.97
2017-09-21T06:06:51.908Z,11.94
2017-09-21T06:07:51.912Z,12.00
2017-09-21T06:08:51.898Z,11.95
2017-09-21T06:09:51.900Z,11.97
2017-09-21T06:10:51.897Z,12.07
2017-09-21T06:11:51.898Z,12.15
2017-09-21T06:12:51.906Z,12.03
2017-09-21T06:13:51.893Z,12.09
2017-09-21T06:14:51.895Z,12.07
2017-09-21T06:15:51.890Z,12.12
2017-09-21T06:16:51.886Z,12.17
2017-09-21T06:17:51.887Z,12.22
2017-09-21T06:18:51.889Z,12.18
2017-09-21T06:19:51.883Z,12.17
2017-09-21T06:20:51.885Z,12.28
2017-09-21T06:21:51.882Z,12.25
2017-09-21T06:22:51.881Z,12.28
2017-09-21T06:23:51.904Z,12.25
2017-09-21T06:24:51.875Z,12.35
2017-09-21T06:25:51.874Z,12.31
2017-09-21T06:26:51.872Z,12.37
2017-09-21T06:27:51.870Z,12.35
2017-09-21T06:28:51.885Z,12.31
2017-09-21T06:29:51.866Z,12.36
2017-09-21T06:30:51.868Z,12.32
2017-09-21T06:31:51.865Z,12.46
2017-09-21T06:32:51.894Z,12.42
2017-09-21T06:33:51.859Z,12.45
2017-09-21T06:34:51.861Z,12.32
2017-09-21T06:35:51.858Z,12.43
2017-09-21T06:36:51.857Z,12.49
2017-09-21T06:37:51.859Z,12.49
2017-09-21T06:38:51.855Z,12.50
2017-09-21T06:39:51.857Z,12.45
2017-09-21T06:40:51.856Z,12.47
2017-09-21T06:41:51.850Z,12.54
2017-09-21T06:42:51.852Z,12.49
2017-09-21T06:43:51.850Z,12.45
2017-09-21T06:44:51.852Z,12.54
2017-09-21T06:45:51.848Z,12.43
2017-09-21T06:46:51.845Z,12.50
2017-09-21T06:47:51.845Z,12.45
2017-09-21T06:48:51.849Z,12.43
2017-09-21T06:50:00.474Z,12.60
2017-09-21T06:51:45.223Z,12.61
2017-09-21T06:52:45.208Z,12.62
2017-09-21T06:53:45.239Z,12.62
2017-09-21T06:54:45.209Z,12.72
2017-09-21T06:55:45.202Z,12.68
2017-09-21T06:56:45.205Z,12.79
2017-09-21T06:57:45.202Z,12.80
2017-09-21T06:58:45.198Z,12.91
2017-09-21T06:59:45.200Z,12.91
2017-09-21T07:00:45.203Z,12.90
2017-09-21T07:01:45.199Z,12.94
2017-09-21T07:02:45.211Z,12.93
2017-09-21T07:03:45.198Z,12.90
2017-09-21T07:04:45.198Z,12.93
2017-09-21T07:05:45.197Z,12.97
2017-09-21T07:06:45.196Z,12.97
2017-09-21T07:07:45.195Z,12.94
2017-09-21T07:08:45.194Z,12.98
2017-09-21T07:09:45.192Z,12.94
2017-09-21T07:10:45.193Z,13.08
2017-09-21T07:11:45.197Z,13.05
2017-09-21T07:12:45.191Z,13.03
2017-09-21T07:13:45.188Z,13.04
2017-09-21T07:14:45.189Z,12.98
2017-09-21T07:15:45.187Z,13.09
2017-09-21T07:16:45.185Z,13.05
2017-09-21T07:17:45.186Z,12.95
2017-09-21T07:18:45.186Z,12.97
2017-09-21T07:19:45.186Z,12.93
2017-09-21T07:20:45.182Z,13.03
2017-09-21T07:21:45.179Z,12.98
2017-09-21T07:22:45.184Z,12.97
2017-09-21T07:23:45.182Z,12.91
2017-09-21T07:24:45.182Z,12.97
2017-09-21T07:25:45.181Z,12.90
2017-09-21T07:26:45.182Z,12.98
2017-09-21T07:27:45.181Z,12.98
2017-09-21T07:28:45.179Z,12.94
2017-09-21T07:29:45.185Z,12.93
2017-09-21T07:30:45.178Z,12.91
2017-09-21T07:31:45.175Z,12.91
2017-09-21T07:32:45.176Z,12.95
2017-09-21T07:33:45.181Z,12.91
2017-09-21T07:34:45.176Z,12.93
2017-09-21T07:35:45.176Z,12.91
2017-09-21T07:36:45.178Z,12.93
2017-09-21T07:37:45.213Z,12.93
2017-09-21T07:38:45.172Z,12.93
2017-09-21T07:39:45.190Z,12.86
2017-09-21T07:40:45.175Z,12.87
2017-09-21T07:41:45.170Z,12.87
2017-09-21T07:42:45.180Z,12.83
2017-09-21T07:43:45.165Z,12.85
2017-09-21T07:44:45.170Z,12.82
2017-09-21T07:45:45.168Z,12.86
2017-09-21T07:46:45.178Z,12.91
2017-09-21T07:47:45.175Z,12.95
2017-09-21T07:48:45.164Z,12.93
2017-09-21T07:49:45.168Z,12.90
2017-09-21T07:50:45.162Z,12.91
2017-09-21T07:51:45.163Z,13.09
2017-09-21T07:52:45.161Z,13.16
2017-09-21T07:53:45.162Z,13.18
2017-09-21T07:54:45.162Z,13.18
2017-09-21T07:55:45.159Z,13.22
2017-09-21T07:56:45.158Z,13.22
2017-09-21T07:57:45.169Z,13.35
2017-09-21T07:58:45.157Z,13.42
2017-09-21T07:59:45.156Z,13.35
2017-09-21T08:00:45.171Z,13.52
2017-09-21T08:01:45.154Z,13.56
2017-09-21T08:02:45.153Z,13.60
2017-09-21T08:03:45.155Z,13.60
2017-09-21T08:04:45.155Z,13.71
2017-09-21T08:05:45.154Z,13.67
2017-09-21T08:06:45.153Z,13.74
2017-09-21T08:07:45.153Z,13.68
2017-09-21T08:08:45.152Z,13.65
2017-09-21T08:09:45.150Z,13.59
2017-09-21T08:10:45.150Z,13.56
2017-09-21T08:11:45.149Z,13.60
2017-09-21T08:12:45.148Z,13.63
2017-09-21T08:13:45.154Z,13.54
2017-09-21T08:14:45.155Z,13.67
2017-09-21T08:15:45.152Z,13.70
2017-09-21T08:16:45.149Z,13.59
2017-09-21T08:17:45.154Z,13.71
2017-09-21T08:18:45.149Z,13.68
2017-09-21T08:19:45.150Z,13.65
2017-09-21T08:20:45.152Z,13.65
2017-09-21T08:21:45.149Z,13.72
2017-09-21T08:22:45.158Z,13.67
2017-09-21T08:23:45.148Z,13.75
2017-09-21T08:24:45.150Z,13.89
2017-09-21T08:25:45.147Z,13.95
2017-09-21T08:26:45.147Z,14.07
2017-09-21T08:27:45.147Z,14.14
2017-09-21T08:28:45.150Z,14.17
2017-09-21T08:29:45.162Z,14.28
2017-09-21T08:30:45.143Z,14.30
2017-09-21T08:31:45.148Z,14.35
2017-09-21T08:32:45.149Z,14.41
2017-09-21T08:33:45.146Z,14.48
2017-09-21T08:34:45.149Z,14.54
2017-09-21T08:35:45.158Z,14.60
2017-09-21T08:36:45.147Z,14.63
2017-09-21T08:37:45.148Z,14.55
2017-09-21T08:38:45.147Z,14.55
2017-09-21T08:39:45.149Z,14.65
2017-09-21T08:40:45.150Z,14.53
2017-09-21T08:41:45.172Z,14.65
2017-09-21T08:42:45.152Z,14.66
2017-09-21T08:43:45.151Z,14.69
2017-09-21T08:44:45.154Z,14.81
2017-09-21T08:45:45.150Z,14.73
2017-09-21T08:46:45.151Z,14.82
2017-09-21T08:47:45.154Z,14.77
2017-09-21T08:48:45.153Z,14.72
2017-09-21T08:49:45.157Z,14.73
2017-09-21T08:50:45.153Z,14.73
2017-09-21T08:51:45.159Z,14.84
2017-09-21T08:52:45.161Z,14.88
2017-09-21T08:53:45.156Z,14.91
2017-09-21T08:54:45.175Z,14.94
2017-09-21T08:55:45.163Z,14.99
2017-09-21T08:56:45.168Z,14.84
2017-09-21T08:57:45.162Z,14.70
2017-09-21T08:58:45.166Z,14.50
2017-09-21T08:59:45.162Z,14.45
2017-09-21T09:00:45.165Z,14.33
2017-09-21T09:01:45.175Z,14.35
2017-09-21T09:02:45.177Z,14.35
2017-09-21T09:03:45.167Z,14.36
2017-09-21T09:04:45.168Z,14.43
2017-09-21T09:05:45.170Z,14.47
2017-09-21T09:06:45.173Z,14.45
2017-09-21T09:07:45.173Z,14.40
2017-09-21T09:08:45.171Z,14.41
2017-09-21T09:09:45.174Z,14.47
2017-09-21T09:10:45.175Z,14.36
2017-09-21T09:11:45.175Z,14.50
2017-09-21T09:12:45.174Z,14.50
2017-09-21T09:13:45.173Z,14.48
2017-09-21T09:14:45.178Z,14.51
2017-09-21T09:15:45.178Z,14.55
2017-09-21T09:16:45.176Z,14.60
2017-09-21T09:17:45.179Z,14.65
2017-09-21T09:18:45.180Z,14.66
2017-09-21T09:19:45.181Z,14.70
2017-09-21T09:20:45.186Z,14.77
2017-09-21T09:21:45.188Z,14.85
2017-09-21T09:22:45.183Z,14.84
2017-09-21T09:23:45.184Z,15.02
2017-09-21T09:24:45.185Z,15.02
2017-09-21T09:25:45.184Z,15.11
2017-09-21T09:26:45.188Z,15.09
2017-09-21T09:27:45.187Z,15.02
2017-09-21T09:28:45.188Z,14.94
2017-09-21T09:29:45.190Z,15.00
2017-09-21T09:30:45.193Z,15.03
2017-09-21T09:31:45.191Z,15.03
2017-09-21T09:32:45.195Z,15.02
2017-09-21T09:33:45.193Z,15.02
2017-09-21T09:34:45.192Z,15.03
2017-09-21T09:35:45.202Z,14.97
2017-09-21T09:36:45.196Z,15.07
2017-09-21T09:37:45.199Z,15.10
2017-09-21T09:38:45.208Z,15.06
2017-09-21T09:39:45.202Z,15.10
2017-09-21T09:40:45.201Z,15.10
2017-09-21T09:41:45.231Z,15.24
2017-09-21T09:42:45.206Z,15.22
2017-09-21T09:43:45.205Z,15.19
2017-09-21T09:44:45.206Z,15.27
2017-09-21T09:45:45.208Z,15.22
2017-09-21T09:46:45.208Z,15.07
2017-09-21T09:47:45.211Z,15.07
2017-09-21T09:48:45.208Z,15.18
2017-09-21T09:49:45.237Z,15.21
2017-09-21T09:50:45.216Z,15.21
2017-09-21T09:51:45.215Z,15.27
2017-09-21T09:52:45.213Z,15.31
2017-09-21T09:53:45.235Z,15.44
2017-09-21T09:54:45.218Z,15.44
2017-09-21T09:55:45.224Z,15.58
2017-09-21T09:56:45.222Z,15.55
2017-09-21T09:57:45.225Z,15.70
2017-09-21T09:58:45.230Z,15.68
2017-09-21T09:59:45.225Z,15.76
2017-09-21T10:00:45.229Z,15.75
2017-09-21T10:01:45.229Z,15.84
2017-09-21T10:02:45.230Z,15.80
2017-09-21T10:03:45.232Z,15.79
2017-09-21T10:04:45.233Z,15.94
2017-09-21T10:05:45.235Z,15.77
2017-09-21T10:06:45.258Z,15.92
2017-09-21T10:07:45.239Z,16.01
2017-09-21T10:08:45.242Z,15.95
2017-09-21T10:09:45.242Z,15.92
2017-09-21T10:10:45.247Z,15.92
2017-09-21T10:11:45.249Z,15.91
2017-09-21T10:12:45.255Z,15.83
2017-09-21T10:13:45.250Z,15.72
2017-09-21T10:14:45.250Z,15.76
2017-09-21T10:15:45.254Z,15.77
2017-09-21T10:16:45.256Z,15.86
2017-09-21T10:17:45.255Z,15.83
2017-09-21T10:18:45.260Z,15.83
2017-09-21T10:19:45.258Z,15.80
2017-09-21T10:20:45.268Z,15.97
2017-09-21T10:21:45.266Z,15.80
2017-09-21T10:22:45.273Z,15.76
2017-09-21T10:23:45.271Z,15.79
2017-09-21T10:24:45.270Z,15.82
2017-09-21T10:25:45.278Z,15.94
2017-09-21T10:26:45.278Z,15.90
2017-09-21T10:27:45.279Z,16.01
2017-09-21T10:28:45.281Z,16.04
2017-09-21T10:29:45.281Z,16.23
2017-09-21T10:30:45.285Z,16.16
2017-09-21T10:31:45.287Z,16.21
2017-09-21T10:32:45.288Z,16.10
2017-09-21T10:33:45.291Z,16.16
2017-09-21T10:34:45.294Z,16.29
2017-09-21T10:35:45.301Z,16.16
2017-09-21T10:36:45.299Z,16.09
2017-09-21T10:37:45.301Z,16.21
2017-09-21T10:38:45.304Z,16.16
2017-09-21T10:39:45.307Z,16.10
2017-09-21T10:40:45.326Z,16.02
2017-09-21T10:41:45.318Z,15.80
2017-09-21T10:42:45.313Z,15.75
2017-09-21T10:43:45.317Z,15.70
2017-09-21T10:44:45.322Z,15.70
2017-09-21T10:45:45.324Z,15.76
2017-09-21T10:46:45.326Z,15.90
2017-09-21T10:47:45.326Z,15.97
2017-09-21T10:48:45.360Z,15.98
2017-09-21T10:49:45.329Z,16.12
2017-09-21T10:50:45.331Z,16.28
2017-09-21T10:51:45.339Z,16.53
2017-09-21T10:52:45.335Z,16.72
2017-09-21T10:53:45.340Z,16.83
2017-09-21T10:54:45.354Z,16.86
2017-09-21T10:55:45.349Z,16.93
2017-09-21T10:56:45.343Z,17.06
2017-09-21T10:57:45.346Z,17.15
2017-09-21T10:58:45.353Z,17.19
2017-09-21T10:59:45.350Z,17.19
2017-09-21T11:00:45.377Z,17.22
2017-09-21T11:01:45.351Z,17.19
2017-09-21T11:02:45.360Z,17.08
2017-09-21T11:03:45.398Z,16.87
2017-09-21T11:04:45.366Z,17.02
2017-09-21T11:05:45.482Z,16.96
2017-09-21T11:06:45.374Z,16.89
2017-09-21T11:07:45.381Z,16.81
2017-09-21T11:08:45.379Z,16.83
2017-09-21T11:09:45.398Z,16.60
2017-09-21T11:10:45.384Z,16.66
2017-09-21T11:11:45.384Z,16.61
2017-09-21T11:12:45.388Z,16.61
2017-09-21T11:13:45.393Z,16.61
2017-09-21T11:14:45.395Z,16.56
2017-09-21T11:15:45.400Z,16.33
2017-09-21T11:16:45.407Z,16.39
2017-09-21T11:17:45.406Z,16.41
2017-09-21T11:18:45.408Z,16.51
2017-09-21T11:19:45.410Z,16.65
2017-09-21T11:20:45.419Z,16.64
2017-09-21T11:21:45.414Z,16.75
2017-09-21T11:22:45.419Z,16.78
2017-09-21T11:23:45.424Z,17.05
2017-09-21T11:24:45.424Z,17.20
2017-09-21T11:25:45.427Z,17.23
2017-09-21T11:26:45.427Z,17.27
2017-09-21T11:27:45.432Z,17.27
2017-09-21T11:28:45.436Z,17.41
2017-09-21T11:29:45.436Z,17.34
2017-09-21T11:30:45.448Z,17.38
2017-09-21T11:31:45.443Z,17.49
2017-09-21T11:32:45.447Z,17.52
2017-09-21T11:33:45.449Z,17.54
2017-09-21T11:34:45.454Z,17.36
2017-09-21T11:35:45.458Z,17.44
2017-09-21T11:36:45.461Z,17.57
2017-09-21T11:37:45.463Z,17.46
2017-09-21T11:38:45.506Z,17.56
2017-09-21T11:39:45.468Z,17.57
2017-09-21T11:40:45.471Z,17.56
2017-09-21T11:41:45.481Z,17.60
2017-09-21T11:42:45.481Z,17.57
2017-09-21T11:43:45.511Z,17.46
2017-09-21T11:44:45.487Z,17.36
2017-09-21T11:45:45.490Z,17.31
2017-09-21T11:46:45.523Z,17.24
2017-09-21T11:47:45.499Z,17.27
2017-09-21T11:48:45.503Z,17.19
2017-09-21T11:49:45.507Z,17.16
2017-09-21T11:50:45.509Z,17.24
2017-09-21T11:51:45.554Z,17.38
2017-09-21T11:52:45.550Z,17.34
2017-09-21T11:53:45.565Z,17.45
2017-09-21T11:54:45.523Z,17.31
2017-09-21T11:55:45.537Z,17.34
2017-09-21T11:56:45.527Z,17.44
2017-09-21T11:57:45.530Z,17.45
2017-09-21T11:58:45.533Z,17.49
2017-09-21T11:59:45.537Z,17.52
2017-09-21T12:00:45.594Z,17.79
2017-09-21T12:01:45.624Z,17.89
2017-09-21T12:02:45.546Z,17.95
2017-09-21T12:03:45.545Z,17.92
2017-09-21T12:04:45.555Z,17.92
2017-09-21T12:05:45.561Z,17.85
2017-09-21T12:06:45.558Z,17.80
2017-09-21T12:07:45.568Z,17.79
2017-09-21T12:08:45.568Z,17.78
2017-09-21T12:09:45.607Z,17.78
2017-09-21T12:10:45.574Z,17.87
2017-09-21T12:11:45.595Z,17.95
2017-09-21T12:12:45.577Z,17.89
2017-09-21T12:13:45.585Z,17.78
2017-09-21T12:14:45.624Z,17.89
2017-09-21T12:15:45.603Z,17.90
2017-09-21T12:16:45.595Z,18.05
2017-09-21T12:17:45.607Z,18.16
2017-09-21T12:18:45.611Z,18.15
2017-09-21T12:19:45.609Z,18.04
2017-09-21T12:20:45.613Z,17.85
2017-09-21T12:21:45.617Z,17.86
2017-09-21T12:22:45.623Z,18.00
2017-09-21T12:23:45.628Z,18.07
2017-09-21T12:24:45.629Z,18.08
2017-09-21T12:25:45.639Z,18.26
2017-09-21T12:26:45.639Z,18.40
2017-09-21T12:27:45.646Z,18.50
2017-09-21T12:28:45.643Z,18.53
2017-09-21T12:29:45.674Z,18.47
2017-09-21T12:30:45.657Z,18.35
2017-09-21T12:31:45.654Z,18.47
2017-09-21T12:32:45.657Z,18.50
2017-09-21T12:33:45.666Z,18.56
2017-09-21T12:34:45.672Z,18.38
2017-09-21T12:35:45.678Z,18.29
2017-09-21T12:36:45.679Z,17.97
2017-09-21T12:37:45.686Z,17.94
2017-09-21T12:38:45.692Z,17.67
2017-09-21T12:39:45.692Z,17.68
2017-09-21T12:40:45.697Z,17.64
2017-09-21T12:41:45.702Z,17.78
2017-09-21T12:42:45.703Z,17.72
2017-09-21T12:43:45.708Z,17.67
2017-09-21T12:44:45.721Z,17.57
2017-09-21T12:45:45.720Z,17.76
2017-09-21T12:46:45.723Z,17.79
2017-09-21T12:47:45.728Z,17.78
2017-09-21T12:48:45.731Z,17.72
2017-09-21T12:49:45.735Z,17.64
2017-09-21T12:50:45.736Z,17.70
2017-09-21T12:51:45.762Z,17.57
2017-09-21T12:52:45.747Z,17.57
2017-09-21T12:53:45.747Z,17.59